San Ramon, California
Current Conditions -  °F | °C
As of 1:53 AM on Tuesday 27 Jan 2015 (Local Time) from KLVK Reporting Station
Few Clouds Few Clouds  
Wind Chill: 53°   Ceiling: Unl
Heat Index: 53°   Visibility: 10mi
Dew Point: 44°   Wind: 0mph
Humidity: 71%   Direction: NA
Pressure: 30.04"   Gusts: NA
Location:  37.78°N, 121.96°W
Report Text: KLVK 270953Z AUTO 00000KT 10SM FEW120 12/07 A3004 RMK AO2 SLP170 T01170067
Loading
Personal Weather Stations






























Interactive Weather Map New forecast layout! Learn more

10-Day Weather Forecast

Advertisements
Track Severe Weather on mobile